sensor_id;sensor_type;location;lat;lon;timestamp;P1;durP1;ratioP1;P2;durP2;ratioP2
35048;SDS011;21236;48.740;-3.446;2022-07-06T00:02:22;5.70;;;2.60;;
35048;SDS011;21236;48.740;-3.446;2022-07-06T00:04:48;9.07;;;2.92;;
35048;SDS011;21236;48.740;-3.446;2022-07-06T00:07:14;10.02;;;2.40;;
35048;SDS011;21236;48.740;-3.446;2022-07-06T00:09:40;8.10;;;2.90;;
35048;SDS011;21236;48.740;-3.446;2022-07-06T00:12:07;10.07;;;3.42;;
35048;SDS011;21236;48.740;-3.446;2022-07-06T00:14:33;10.95;;;2.63;;
35048;SDS011;21236;48.740;-3.446;2022-07-06T00:16:59;6.22;;;2.85;;
35048;SDS011;21236;48.740;-3.446;2022-07-06T00:19:25;13.25;;;4.07;;
35048;SDS011;21236;48.740;-3.446;2022-07-06T00:21:51;5.00;;;2.33;;
35048;SDS011;21236;48.740;-3.446;2022-07-06T00:24:17;5.07;;;2.65;;
35048;SDS011;21236;48.740;-3.446;2022-07-06T00:26:44;4.68;;;2.47;;
35048;SDS011;21236;48.740;-3.446;2022-07-06T00:29:10;10.13;;;2.85;;
35048;SDS011;21236;48.740;-3.446;2022-07-06T00:31:36;8.75;;;2.75;;
35048;SDS011;21236;48.740;-3.446;2022-07-06T00:34:02;7.32;;;2.63;;
35048;SDS011;21236;48.740;-3.446;2022-07-06T00:36:29;10.07;;;2.55;;
35048;SDS011;21236;48.740;-3.446;2022-07-06T00:38:55;9.40;;;2.50;;
35048;SDS011;21236;48.740;-3.446;2022-07-06T00:41:21;10.77;;;2.65;;
35048;SDS011;21236;48.740;-3.446;2022-07-06T00:43:55;8.55;;;2.95;;
35048;SDS011;21236;48.740;-3.446;2022-07-06T00:46:26;6.75;;;2.67;;
35048;SDS011;21236;48.740;-3.446;2022-07-06T00:48:53;5.85;;;2.80;;
35048;SDS011;21236;48.740;-3.446;2022-07-06T00:51:22;6.53;;;2.30;;
35048;SDS011;21236;48.740;-3.446;2022-07-06T00:53:48;5.13;;;2.28;;
35048;SDS011;21236;48.740;-3.446;2022-07-06T00:56:14;8.75;;;2.40;;
35048;SDS011;21236;48.740;-3.446;2022-07-06T00:58:40;5.07;;;2.45;;
35048;SDS011;21236;48.740;-3.446;2022-07-06T01:01:07;7.93;;;2.75;;
35048;SDS011;21236;48.740;-3.446;2022-07-06T01:03:33;4.50;;;2.15;;
35048;SDS011;21236;48.740;-3.446;2022-07-06T01:06:00;4.47;;;2.40;;
35048;SDS011;21236;48.740;-3.446;2022-07-06T01:08:26;6.63;;;2.40;;
35048;SDS011;21236;48.740;-3.446;2022-07-06T01:10:53;5.78;;;2.80;;
35048;SDS011;21236;48.740;-3.446;2022-07-06T01:13:19;5.20;;;1.98;;
35048;SDS011;21236;48.740;-3.446;2022-07-06T01:15:45;4.78;;;2.35;;
35048;SDS011;21236;48.740;-3.446;2022-07-06T01:18:11;5.95;;;2.55;;
35048;SDS011;21236;48.740;-3.446;2022-07-06T01:20:38;6.43;;;2.40;;
35048;SDS011;21236;48.740;-3.446;2022-07-06T01:23:04;5.82;;;2.60;;
35048;SDS011;21236;48.740;-3.446;2022-07-06T01:25:30;7.07;;;2.58;;
35048;SDS011;21236;48.740;-3.446;2022-07-06T01:27:57;5.50;;;2.47;;
35048;SDS011;21236;48.740;-3.446;2022-07-06T01:30:23;7.50;;;2.60;;
35048;SDS011;21236;48.740;-3.446;2022-07-06T01:32:50;5.63;;;2.50;;
35048;SDS011;21236;48.740;-3.446;2022-07-06T01:35:16;4.13;;;2.40;;
35048;SDS011;21236;48.740;-3.446;2022-07-06T01:37:42;12.13;;;2.65;;
35048;SDS011;21236;48.740;-3.446;2022-07-06T01:40:09;7.57;;;2.42;;
35048;SDS011;21236;48.740;-3.446;2022-07-06T01:42:36;6.45;;;2.35;;
35048;SDS011;21236;48.740;-3.446;2022-07-06T01:45:03;6.38;;;2.40;;
35048;SDS011;21236;48.740;-3.446;2022-07-06T01:47:29;4.40;;;2.00;;
35048;SDS011;21236;48.740;-3.446;2022-07-06T01:49:59;8.07;;;2.50;;
35048;SDS011;21236;48.740;-3.446;2022-07-06T01:52:27;6.68;;;3.38;;
35048;SDS011;21236;48.740;-3.446;2022-07-06T01:54:54;7.13;;;2.47;;
35048;SDS011;21236;48.740;-3.446;2022-07-06T01:57:20;6.22;;;2.45;;
35048;SDS011;21236;48.740;-3.446;2022-07-06T01:59:47;9.98;;;2.38;;
35048;SDS011;21236;48.740;-3.446;2022-07-06T02:02:13;7.15;;;2.40;;
35048;SDS011;21236;48.740;-3.446;2022-07-06T02:04:43;7.72;;;2.80;;
35048;SDS011;21236;48.740;-3.446;2022-07-06T02:07:09;7.65;;;2.70;;
35048;SDS011;21236;48.740;-3.446;2022-07-06T02:09:35;7.22;;;2.30;;
35048;SDS011;21236;48.740;-3.446;2022-07-06T02:12:02;6.32;;;2.33;;
35048;SDS011;21236;48.740;-3.446;2022-07-06T02:14:28;4.65;;;2.13;;
35048;SDS011;21236;48.740;-3.446;2022-07-06T02:16:54;5.85;;;1.95;;
35048;SDS011;21236;48.740;-3.446;2022-07-06T02:19:20;5.80;;;2.50;;
35048;SDS011;21236;48.740;-3.446;2022-07-06T02:21:46;4.72;;;2.40;;
35048;SDS011;21236;48.740;-3.446;2022-07-06T02:24:12;6.28;;;2.50;;
35048;SDS011;21236;48.740;-3.446;2022-07-06T02:26:40;10.02;;;2.70;;
35048;SDS011;21236;48.740;-3.446;2022-07-06T02:29:06;3.90;;;2.20;;
35048;SDS011;21236;48.740;-3.446;2022-07-06T02:31:33;7.72;;;2.83;;
35048;SDS011;21236;48.740;-3.446;2022-07-06T02:33:59;9.10;;;2.67;;
35048;SDS011;21236;48.740;-3.446;2022-07-06T02:36:25;8.35;;;2.78;;
35048;SDS011;21236;48.740;-3.446;2022-07-06T02:38:52;6.45;;;2.30;;
35048;SDS011;21236;48.740;-3.446;2022-07-06T02:41:18;7.47;;;3.05;;
35048;SDS011;21236;48.740;-3.446;2022-07-06T02:43:45;4.47;;;2.58;;
35048;SDS011;21236;48.740;-3.446;2022-07-06T02:46:11;7.88;;;2.60;;
35048;SDS011;21236;48.740;-3.446;2022-07-06T02:48:39;7.60;;;2.60;;
35048;SDS011;21236;48.740;-3.446;2022-07-06T02:51:05;8.65;;;2.67;;
35048;SDS011;21236;48.740;-3.446;2022-07-06T02:53:32;12.88;;;3.97;;
35048;SDS011;21236;48.740;-3.446;2022-07-06T02:56:00;7.13;;;2.45;;
35048;SDS011;21236;48.740;-3.446;2022-07-06T02:58:26;9.45;;;2.80;;
35048;SDS011;21236;48.740;-3.446;2022-07-06T03:00:53;9.85;;;2.88;;
35048;SDS011;21236;48.740;-3.446;2022-07-06T03:03:19;10.43;;;2.80;;
35048;SDS011;21236;48.740;-3.446;2022-07-06T03:05:45;8.30;;;2.78;;
35048;SDS011;21236;48.740;-3.446;2022-07-06T03:08:14;7.63;;;2.65;;
35048;SDS011;21236;48.740;-3.446;2022-07-06T03:10:41;10.43;;;3.35;;
35048;SDS011;21236;48.740;-3.446;2022-07-06T03:13:07;6.47;;;2.55;;
35048;SDS011;21236;48.740;-3.446;2022-07-06T03:15:33;10.68;;;3.05;;
35048;SDS011;21236;48.740;-3.446;2022-07-06T03:18:01;7.03;;;2.67;;
35048;SDS011;21236;48.740;-3.446;2022-07-06T03:20:28;5.90;;;2.70;;
35048;SDS011;21236;48.740;-3.446;2022-07-06T03:22:55;8.90;;;2.65;;
35048;SDS011;21236;48.740;-3.446;2022-07-06T03:25:22;14.32;;;2.80;;
35048;SDS011;21236;48.740;-3.446;2022-07-06T03:27:48;9.18;;;3.33;;
35048;SDS011;21236;48.740;-3.446;2022-07-06T03:30:17;12.77;;;2.67;;
35048;SDS011;21236;48.740;-3.446;2022-07-06T03:32:48;10.43;;;2.70;;
35048;SDS011;21236;48.740;-3.446;2022-07-06T03:35:15;10.85;;;3.28;;
35048;SDS011;21236;48.740;-3.446;2022-07-06T03:37:43;6.25;;;2.80;;
35048;SDS011;21236;48.740;-3.446;2022-07-06T03:40:09;5.15;;;2.88;;
35048;SDS011;21236;48.740;-3.446;2022-07-06T03:42:36;11.02;;;3.58;;
35048;SDS011;21236;48.740;-3.446;2022-07-06T03:45:05;10.60;;;3.15;;
35048;SDS011;21236;48.740;-3.446;2022-07-06T03:47:32;9.18;;;3.47;;
35048;SDS011;21236;48.740;-3.446;2022-07-06T03:49:58;13.02;;;2.90;;
35048;SDS011;21236;48.740;-3.446;2022-07-06T03:52:25;9.80;;;3.08;;
35048;SDS011;21236;48.740;-3.446;2022-07-06T03:54:55;10.40;;;3.53;;
35048;SDS011;21236;48.740;-3.446;2022-07-06T03:57:24;11.13;;;3.15;;
35048;SDS011;21236;48.740;-3.446;2022-07-06T03:59:52;11.27;;;3.25;;
35048;SDS011;21236;48.740;-3.446;2022-07-06T04:02:20;13.50;;;3.55;;
35048;SDS011;21236;48.740;-3.446;2022-07-06T04:04:48;6.57;;;2.78;;
35048;SDS011;21236;48.740;-3.446;2022-07-06T04:07:15;9.80;;;2.78;;
35048;SDS011;21236;48.740;-3.446;2022-07-06T04:09:41;13.73;;;3.13;;
35048;SDS011;21236;48.740;-3.446;2022-07-06T04:12:07;13.55;;;3.38;;
35048;SDS011;21236;48.740;-3.446;2022-07-06T04:14:34;11.15;;;3.20;;
35048;SDS011;21236;48.740;-3.446;2022-07-06T04:17:01;7.72;;;3.10;;
35048;SDS011;21236;48.740;-3.446;2022-07-06T04:19:49;11.30;;;2.65;;
35048;SDS011;21236;48.740;-3.446;2022-07-06T04:22:15;8.63;;;2.90;;
35048;SDS011;21236;48.740;-3.446;2022-07-06T04:24:41;9.82;;;3.13;;
35048;SDS011;21236;48.740;-3.446;2022-07-06T04:27:08;9.13;;;3.03;;
35048;SDS011;21236;48.740;-3.446;2022-07-06T04:29:34;10.07;;;3.38;;
35048;SDS011;21236;48.740;-3.446;2022-07-06T04:32:00;8.90;;;3.25;;
35048;SDS011;21236;48.740;-3.446;2022-07-06T04:34:27;10.48;;;3.42;;
35048;SDS011;21236;48.740;-3.446;2022-07-06T04:36:54;7.57;;;3.20;;
35048;SDS011;21236;48.740;-3.446;2022-07-06T04:39:20;10.05;;;3.72;;
35048;SDS011;21236;48.740;-3.446;2022-07-06T04:41:46;11.65;;;3.55;;
35048;SDS011;21236;48.740;-3.446;2022-07-06T04:44:12;11.48;;;3.13;;
35048;SDS011;21236;48.740;-3.446;2022-07-06T04:46:39;10.40;;;3.85;;
35048;SDS011;21236;48.740;-3.446;2022-07-06T04:49:05;14.88;;;4.63;;
35048;SDS011;21236;48.740;-3.446;2022-07-06T04:51:32;11.43;;;3.60;;
35048;SDS011;21236;48.740;-3.446;2022-07-06T04:53:59;11.70;;;3.97;;
35048;SDS011;21236;48.740;-3.446;2022-07-06T04:56:25;10.60;;;3.70;;
35048;SDS011;21236;48.740;-3.446;2022-07-06T04:58:52;13.82;;;3.70;;
35048;SDS011;21236;48.740;-3.446;2022-07-06T05:01:20;14.13;;;3.83;;
35048;SDS011;21236;48.740;-3.446;2022-07-06T05:03:47;11.23;;;3.38;;
35048;SDS011;21236;48.740;-3.446;2022-07-06T05:06:16;14.38;;;3.83;;
35048;SDS011;21236;48.740;-3.446;2022-07-06T05:08:44;10.73;;;3.85;;
35048;SDS011;21236;48.740;-3.446;2022-07-06T05:11:10;9.75;;;3.75;;
35048;SDS011;21236;48.740;-3.446;2022-07-06T05:13:36;15.65;;;4.15;;
35048;SDS011;21236;48.740;-3.446;2022-07-06T05:16:03;9.02;;;3.42;;
35048;SDS011;21236;48.740;-3.446;2022-07-06T05:18:30;11.50;;;3.42;;
35048;SDS011;21236;48.740;-3.446;2022-07-06T05:20:57;10.77;;;3.65;;
35048;SDS011;21236;48.740;-3.446;2022-07-06T05:23:24;7.13;;;3.40;;
35048;SDS011;21236;48.740;-3.446;2022-07-06T05:25:53;11.13;;;3.40;;
35048;SDS011;21236;48.740;-3.446;2022-07-06T05:28:19;10.40;;;3.85;;
35048;SDS011;21236;48.740;-3.446;2022-07-06T05:30:45;13.50;;;4.35;;
35048;SDS011;21236;48.740;-3.446;2022-07-06T05:33:12;13.65;;;3.72;;
35048;SDS011;21236;48.740;-3.446;2022-07-06T05:35:39;14.55;;;3.30;;
35048;SDS011;21236;48.740;-3.446;2022-07-06T05:38:06;6.57;;;3.38;;
35048;SDS011;21236;48.740;-3.446;2022-07-06T05:40:32;9.63;;;3.42;;
35048;SDS011;21236;48.740;-3.446;2022-07-06T05:42:59;9.50;;;3.25;;
35048;SDS011;21236;48.740;-3.446;2022-07-06T05:45:25;8.85;;;3.90;;
35048;SDS011;21236;48.740;-3.446;2022-07-06T05:47:52;11.82;;;2.65;;
35048;SDS011;21236;48.740;-3.446;2022-07-06T05:50:38;10.55;;;2.80;;
35048;SDS011;21236;48.740;-3.446;2022-07-06T05:53:05;6.80;;;3.20;;
35048;SDS011;21236;48.740;-3.446;2022-07-06T05:55:32;9.07;;;3.13;;
35048;SDS011;21236;48.740;-3.446;2022-07-06T05:58:00;8.45;;;2.53;;
35048;SDS011;21236;48.740;-3.446;2022-07-06T06:00:29;6.38;;;3.05;;
35048;SDS011;21236;48.740;-3.446;2022-07-06T06:03:01;6.47;;;2.42;;
35048;SDS011;21236;48.740;-3.446;2022-07-06T06:05:27;6.80;;;2.55;;
35048;SDS011;21236;48.740;-3.446;2022-07-06T06:07:59;6.33;;;2.53;;
35048;SDS011;21236;48.740;-3.446;2022-07-06T06:10:26;4.57;;;2.50;;
35048;SDS011;21236;48.740;-3.446;2022-07-06T06:12:55;6.63;;;2.75;;
35048;SDS011;21236;48.740;-3.446;2022-07-06T06:15:22;8.40;;;2.97;;
35048;SDS011;21236;48.740;-3.446;2022-07-06T06:17:48;8.15;;;3.13;;
35048;SDS011;21236;48.740;-3.446;2022-07-06T06:20:14;13.40;;;3.05;;
35048;SDS011;21236;48.740;-3.446;2022-07-06T06:22:47;6.28;;;2.90;;
35048;SDS011;21236;48.740;-3.446;2022-07-06T06:25:18;8.68;;;3.17;;
35048;SDS011;21236;48.740;-3.446;2022-07-06T06:27:44;8.02;;;2.85;;
35048;SDS011;21236;48.740;-3.446;2022-07-06T06:30:10;5.53;;;3.20;;
35048;SDS011;21236;48.740;-3.446;2022-07-06T06:32:37;4.80;;;2.58;;
35048;SDS011;21236;48.740;-3.446;2022-07-06T06:35:03;6.90;;;2.83;;
35048;SDS011;21236;48.740;-3.446;2022-07-06T06:37:30;5.60;;;3.38;;
35048;SDS011;21236;48.740;-3.446;2022-07-06T06:39:56;6.90;;;3.00;;
35048;SDS011;21236;48.740;-3.446;2022-07-06T06:42:22;6.43;;;3.30;;
35048;SDS011;21236;48.740;-3.446;2022-07-06T06:44:50;4.97;;;2.95;;
35048;SDS011;21236;48.740;-3.446;2022-07-06T06:47:16;7.82;;;3.30;;
35048;SDS011;21236;48.740;-3.446;2022-07-06T06:49:44;7.93;;;3.85;;
35048;SDS011;21236;48.740;-3.446;2022-07-06T06:52:10;6.22;;;2.70;;
35048;SDS011;21236;48.740;-3.446;2022-07-06T06:54:36;7.97;;;3.15;;
35048;SDS011;21236;48.740;-3.446;2022-07-06T06:57:02;5.13;;;2.95;;
35048;SDS011;21236;48.740;-3.446;2022-07-06T06:59:29;7.07;;;2.80;;
35048;SDS011;21236;48.740;-3.446;2022-07-06T07:01:55;9.93;;;2.58;;
35048;SDS011;21236;48.740;-3.446;2022-07-06T07:04:21;11.20;;;2.80;;
35048;SDS011;21236;48.740;-3.446;2022-07-06T07:06:47;6.13;;;2.45;;
35048;SDS011;21236;48.740;-3.446;2022-07-06T07:09:13;6.95;;;2.75;;
35048;SDS011;21236;48.740;-3.446;2022-07-06T07:11:40;10.45;;;2.78;;
35048;SDS011;21236;48.740;-3.446;2022-07-06T07:14:06;4.28;;;2.33;;
35048;SDS011;21236;48.740;-3.446;2022-07-06T07:16:32;4.72;;;2.50;;
35048;SDS011;21236;48.740;-3.446;2022-07-06T07:18:58;7.55;;;2.88;;
35048;SDS011;21236;48.740;-3.446;2022-07-06T07:21:24;7.53;;;2.70;;
35048;SDS011;21236;48.740;-3.446;2022-07-06T07:23:50;6.70;;;2.55;;
35048;SDS011;21236;48.740;-3.446;2022-07-06T07:26:17;5.10;;;2.28;;
35048;SDS011;21236;48.740;-3.446;2022-07-06T07:28:43;3.75;;;2.60;;
35048;SDS011;21236;48.740;-3.446;2022-07-06T07:31:09;6.05;;;2.90;;
35048;SDS011;21236;48.740;-3.446;2022-07-06T07:33:35;5.15;;;2.55;;
35048;SDS011;21236;48.740;-3.446;2022-07-06T07:36:01;9.02;;;2.90;;
35048;SDS011;21236;48.740;-3.446;2022-07-06T07:38:27;11.52;;;4.18;;
35048;SDS011;21236;48.740;-3.446;2022-07-06T07:40:54;7.13;;;2.55;;
35048;SDS011;21236;48.740;-3.446;2022-07-06T07:43:20;7.05;;;2.75;;
35048;SDS011;21236;48.740;-3.446;2022-07-06T07:45:47;3.78;;;2.78;;
35048;SDS011;21236;48.740;-3.446;2022-07-06T07:48:13;4.30;;;1.88;;
35048;SDS011;21236;48.740;-3.446;2022-07-06T07:50:40;4.57;;;2.83;;
35048;SDS011;21236;48.740;-3.446;2022-07-06T07:53:06;7.75;;;2.35;;
35048;SDS011;21236;48.740;-3.446;2022-07-06T07:55:32;4.03;;;2.00;;
35048;SDS011;21236;48.740;-3.446;2022-07-06T07:57:59;5.53;;;2.30;;
35048;SDS011;21236;48.740;-3.446;2022-07-06T08:00:25;5.03;;;2.33;;
35048;SDS011;21236;48.740;-3.446;2022-07-06T08:02:51;3.50;;;2.03;;
35048;SDS011;21236;48.740;-3.446;2022-07-06T08:05:19;5.85;;;2.10;;
35048;SDS011;21236;48.740;-3.446;2022-07-06T08:07:45;3.97;;;2.08;;
35048;SDS011;21236;48.740;-3.446;2022-07-06T08:10:11;5.50;;;2.17;;
35048;SDS011;21236;48.740;-3.446;2022-07-06T08:12:37;4.05;;;2.03;;
35048;SDS011;21236;48.740;-3.446;2022-07-06T08:15:04;3.72;;;1.88;;
35048;SDS011;21236;48.740;-3.446;2022-07-06T08:17:30;4.28;;;2.20;;
35048;SDS011;21236;48.740;-3.446;2022-07-06T08:19:57;3.85;;;2.08;;
35048;SDS011;21236;48.740;-3.446;2022-07-06T08:22:23;4.07;;;2.03;;
35048;SDS011;21236;48.740;-3.446;2022-07-06T08:24:49;3.63;;;2.00;;
35048;SDS011;21236;48.740;-3.446;2022-07-06T08:27:16;6.88;;;2.53;;
35048;SDS011;21236;48.740;-3.446;2022-07-06T08:29:42;4.15;;;1.90;;
35048;SDS011;21236;48.740;-3.446;2022-07-06T08:32:08;5.25;;;2.30;;
35048;SDS011;21236;48.740;-3.446;2022-07-06T08:34:34;2.85;;;1.73;;
35048;SDS011;21236;48.740;-3.446;2022-07-06T08:37:00;5.43;;;2.00;;
35048;SDS011;21236;48.740;-3.446;2022-07-06T08:39:26;4.70;;;2.00;;
35048;SDS011;21236;48.740;-3.446;2022-07-06T08:41:52;3.55;;;2.05;;
35048;SDS011;21236;48.740;-3.446;2022-07-06T08:44:20;3.63;;;2.47;;
35048;SDS011;21236;48.740;-3.446;2022-07-06T08:46:47;5.65;;;1.98;;
35048;SDS011;21236;48.740;-3.446;2022-07-06T08:49:16;5.43;;;1.80;;
35048;SDS011;21236;48.740;-3.446;2022-07-06T08:51:42;2.92;;;1.73;;
35048;SDS011;21236;48.740;-3.446;2022-07-06T08:54:09;6.07;;;2.10;;
35048;SDS011;21236;48.740;-3.446;2022-07-06T08:56:36;6.03;;;2.13;;
35048;SDS011;21236;48.740;-3.446;2022-07-06T08:59:03;4.65;;;2.10;;
35048;SDS011;21236;48.740;-3.446;2022-07-06T09:01:29;6.78;;;2.15;;
35048;SDS011;21236;48.740;-3.446;2022-07-06T09:03:56;6.25;;;1.92;;
35048;SDS011;21236;48.740;-3.446;2022-07-06T09:06:23;3.63;;;2.17;;
35048;SDS011;21236;48.740;-3.446;2022-07-06T09:08:49;2.42;;;1.77;;
35048;SDS011;21236;48.740;-3.446;2022-07-06T09:11:18;3.72;;;2.05;;
35048;SDS011;21236;48.740;-3.446;2022-07-06T09:13:44;3.75;;;2.55;;
35048;SDS011;21236;48.740;-3.446;2022-07-06T09:16:11;2.90;;;2.03;;
35048;SDS011;21236;48.740;-3.446;2022-07-06T09:18:38;5.68;;;1.95;;
35048;SDS011;21236;48.740;-3.446;2022-07-06T09:21:05;1.55;;;1.20;;
35048;SDS011;21236;48.740;-3.446;2022-07-06T09:23:31;6.07;;;1.80;;
35048;SDS011;21236;48.740;-3.446;2022-07-06T09:25:59;2.60;;;1.75;;
35048;SDS011;21236;48.740;-3.446;2022-07-06T09:28:40;2.55;;;1.92;;
35048;SDS011;21236;48.740;-3.446;2022-07-06T09:31:06;3.15;;;1.98;;
35048;SDS011;21236;48.740;-3.446;2022-07-06T09:33:32;3.75;;;1.73;;
35048;SDS011;21236;48.740;-3.446;2022-07-06T09:35:59;2.63;;;1.63;;
35048;SDS011;21236;48.740;-3.446;2022-07-06T09:38:27;4.60;;;2.45;;
35048;SDS011;21236;48.740;-3.446;2022-07-06T09:40:53;4.22;;;1.90;;
35048;SDS011;21236;48.740;-3.446;2022-07-06T09:43:20;3.95;;;1.90;;
35048;SDS011;21236;48.740;-3.446;2022-07-06T09:45:51;2.63;;;1.77;;
35048;SDS011;21236;48.740;-3.446;2022-07-06T09:48:18;4.25;;;1.90;;
35048;SDS011;21236;48.740;-3.446;2022-07-06T09:50:51;5.72;;;2.03;;
35048;SDS011;21236;48.740;-3.446;2022-07-06T09:53:18;6.28;;;1.88;;
35048;SDS011;21236;48.740;-3.446;2022-07-06T09:55:45;4.95;;;1.90;;
35048;SDS011;21236;48.740;-3.446;2022-07-06T09:58:12;6.30;;;1.52;;
35048;SDS011;21236;48.740;-3.446;2022-07-06T10:00:38;3.80;;;1.98;;
35048;SDS011;21236;48.740;-3.446;2022-07-06T10:03:05;4.22;;;1.73;;
35048;SDS011;21236;48.740;-3.446;2022-07-06T10:05:31;4.22;;;1.73;;
35048;SDS011;21236;48.740;-3.446;2022-07-06T10:07:58;6.90;;;1.92;;
35048;SDS011;21236;48.740;-3.446;2022-07-06T10:10:29;2.13;;;1.40;;
35048;SDS011;21236;48.740;-3.446;2022-07-06T10:12:56;4.78;;;1.55;;
35048;SDS011;21236;48.740;-3.446;2022-07-06T10:15:23;3.30;;;1.80;;
35048;SDS011;21236;48.740;-3.446;2022-07-06T10:17:50;6.07;;;1.80;;
35048;SDS011;21236;48.740;-3.446;2022-07-06T10:20:17;3.95;;;1.63;;
35048;SDS011;21236;48.740;-3.446;2022-07-06T10:22:44;2.50;;;1.25;;
35048;SDS011;21236;48.740;-3.446;2022-07-06T10:25:10;2.25;;;1.20;;
35048;SDS011;21236;48.740;-3.446;2022-07-06T10:27:37;2.85;;;1.35;;
35048;SDS011;21236;48.740;-3.446;2022-07-06T10:30:04;1.83;;;1.10;;
35048;SDS011;21236;48.740;-3.446;2022-07-06T10:32:30;2.78;;;1.88;;
35048;SDS011;21236;48.740;-3.446;2022-07-06T10:34:56;2.70;;;1.60;;
35048;SDS011;21236;48.740;-3.446;2022-07-06T10:37:27;1.77;;;1.40;;
35048;SDS011;21236;48.740;-3.446;2022-07-06T10:39:54;3.55;;;1.75;;
35048;SDS011;21236;48.740;-3.446;2022-07-06T10:45:08;1.52;;;1.10;;
35048;SDS011;21236;48.740;-3.446;2022-07-06T10:47:34;4.60;;;1.10;;
35048;SDS011;21236;48.740;-3.446;2022-07-06T10:50:02;4.82;;;1.33;;
35048;SDS011;21236;48.740;-3.446;2022-07-06T10:55:27;3.20;;;1.05;;
35048;SDS011;21236;48.740;-3.446;2022-07-06T10:57:54;4.10;;;1.20;;
35048;SDS011;21236;48.740;-3.446;2022-07-06T11:00:20;2.10;;;0.90;;
35048;SDS011;21236;48.740;-3.446;2022-07-06T11:02:46;1.90;;;1.00;;
35048;SDS011;21236;48.740;-3.446;2022-07-06T11:05:39;1.75;;;1.10;;
35048;SDS011;21236;48.740;-3.446;2022-07-06T11:08:01;4.70;;;1.38;;
35048;SDS011;21236;48.740;-3.446;2022-07-06T11:10:28;1.75;;;1.42;;
35048;SDS011;21236;48.740;-3.446;2022-07-06T11:13:07;3.35;;;1.55;;
35048;SDS011;21236;48.740;-3.446;2022-07-06T11:15:48;2.72;;;1.50;;
35048;SDS011;21236;48.740;-3.446;2022-07-06T11:18:15;1.45;;;1.15;;
35048;SDS011;21236;48.740;-3.446;2022-07-06T11:21:10;2.70;;;1.45;;
35048;SDS011;21236;48.740;-3.446;2022-07-06T11:23:30;4.15;;;1.10;;
35048;SDS011;21236;48.740;-3.446;2022-07-06T11:25:56;1.58;;;1.13;;
35048;SDS011;21236;48.740;-3.446;2022-07-06T11:28:24;2.85;;;1.23;;
35048;SDS011;21236;48.740;-3.446;2022-07-06T11:30:51;1.80;;;1.15;;
35048;SDS011;21236;48.740;-3.446;2022-07-06T11:33:27;3.28;;;1.10;;
35048;SDS011;21236;48.740;-3.446;2022-07-06T11:36:10;1.20;;;1.00;;
35048;SDS011;21236;48.740;-3.446;2022-07-06T11:41:02;1.83;;;1.38;;
35048;SDS011;21236;48.740;-3.446;2022-07-06T11:43:29;9.25;;;1.70;;
35048;SDS011;21236;48.740;-3.446;2022-07-06T11:45:55;3.75;;;1.25;;
35048;SDS011;21236;48.740;-3.446;2022-07-06T11:48:21;3.58;;;1.13;;
35048;SDS011;21236;48.740;-3.446;2022-07-06T11:51:02;4.45;;;1.25;;
35048;SDS011;21236;48.740;-3.446;2022-07-06T11:53:29;3.15;;;1.45;;
35048;SDS011;21236;48.740;-3.446;2022-07-06T11:55:55;1.65;;;1.00;;
35048;SDS011;21236;48.740;-3.446;2022-07-06T11:58:27;6.88;;;1.52;;
35048;SDS011;21236;48.740;-3.446;2022-07-06T12:01:07;2.00;;;1.10;;
35048;SDS011;21236;48.740;-3.446;2022-07-06T12:03:34;2.55;;;1.08;;
35048;SDS011;21236;48.740;-3.446;2022-07-06T12:06:01;3.30;;;1.05;;
35048;SDS011;21236;48.740;-3.446;2022-07-06T12:08:27;1.63;;;1.02;;
35048;SDS011;21236;48.740;-3.446;2022-07-06T12:10:53;3.33;;;1.67;;
35048;SDS011;21236;48.740;-3.446;2022-07-06T12:13:20;4.18;;;1.33;;
35048;SDS011;21236;48.740;-3.446;2022-07-06T12:15:46;4.28;;;1.35;;
35048;SDS011;21236;48.740;-3.446;2022-07-06T12:18:13;3.72;;;1.45;;
35048;SDS011;21236;48.740;-3.446;2022-07-06T12:20:39;2.70;;;1.45;;
35048;SDS011;21236;48.740;-3.446;2022-07-06T12:23:05;1.00;;;0.95;;
35048;SDS011;21236;48.740;-3.446;2022-07-06T12:25:36;4.15;;;1.25;;
35048;SDS011;21236;48.740;-3.446;2022-07-06T12:28:02;4.20;;;1.13;;
35048;SDS011;21236;48.740;-3.446;2022-07-06T12:30:29;3.92;;;1.30;;
35048;SDS011;21236;48.740;-3.446;2022-07-06T12:33:14;2.65;;;1.20;;
35048;SDS011;21236;48.740;-3.446;2022-07-06T12:35:43;6.63;;;1.65;;
35048;SDS011;21236;48.740;-3.446;2022-07-06T12:38:09;3.00;;;1.27;;
35048;SDS011;21236;48.740;-3.446;2022-07-06T12:40:36;1.48;;;1.10;;
35048;SDS011;21236;48.740;-3.446;2022-07-06T12:43:03;1.17;;;1.00;;
35048;SDS011;21236;48.740;-3.446;2022-07-06T12:45:29;4.03;;;1.15;;
35048;SDS011;21236;48.740;-3.446;2022-07-06T12:50:31;1.55;;;1.10;;
35048;SDS011;21236;48.740;-3.446;2022-07-06T12:52:58;2.70;;;1.30;;
35048;SDS011;21236;48.740;-3.446;2022-07-06T12:55:25;2.45;;;1.20;;
35048;SDS011;21236;48.740;-3.446;2022-07-06T12:57:52;3.40;;;1.20;;
35048;SDS011;21236;48.740;-3.446;2022-07-06T13:00:19;1.52;;;1.00;;
35048;SDS011;21236;48.740;-3.446;2022-07-06T13:02:47;1.65;;;1.15;;
35048;SDS011;21236;48.740;-3.446;2022-07-06T13:05:14;1.70;;;1.05;;
35048;SDS011;21236;48.740;-3.446;2022-07-06T13:07:47;1.98;;;1.13;;
35048;SDS011;21236;48.740;-3.446;2022-07-06T13:10:14;3.58;;;1.10;;
35048;SDS011;21236;48.740;-3.446;2022-07-06T13:12:41;7.25;;;0.90;;
35048;SDS011;21236;48.740;-3.446;2022-07-06T13:15:08;3.20;;;1.10;;
35048;SDS011;21236;48.740;-3.446;2022-07-06T13:17:34;2.03;;;1.10;;
35048;SDS011;21236;48.740;-3.446;2022-07-06T13:20:02;4.15;;;1.38;;
35048;SDS011;21236;48.740;-3.446;2022-07-06T13:22:28;2.35;;;0.80;;
35048;SDS011;21236;48.740;-3.446;2022-07-06T13:24:55;2.50;;;1.20;;
35048;SDS011;21236;48.740;-3.446;2022-07-06T13:27:21;1.45;;;1.20;;
35048;SDS011;21236;48.740;-3.446;2022-07-06T13:29:47;1.00;;;0.70;;
35048;SDS011;21236;48.740;-3.446;2022-07-06T13:32:13;2.50;;;1.40;;
35048;SDS011;21236;48.740;-3.446;2022-07-06T13:34:39;2.22;;;1.20;;
35048;SDS011;21236;48.740;-3.446;2022-07-06T13:37:05;4.28;;;1.30;;
35048;SDS011;21236;48.740;-3.446;2022-07-06T13:39:32;4.65;;;1.67;;
35048;SDS011;21236;48.740;-3.446;2022-07-06T13:41:58;3.53;;;1.65;;
35048;SDS011;21236;48.740;-3.446;2022-07-06T13:44:24;3.38;;;1.42;;
35048;SDS011;21236;48.740;-3.446;2022-07-06T13:46:50;3.63;;;1.30;;
35048;SDS011;21236;48.740;-3.446;2022-07-06T13:49:17;3.10;;;1.20;;
35048;SDS011;21236;48.740;-3.446;2022-07-06T13:51:43;3.45;;;1.23;;
35048;SDS011;21236;48.740;-3.446;2022-07-06T13:54:09;2.85;;;1.13;;
35048;SDS011;21236;48.740;-3.446;2022-07-06T13:56:36;1.45;;;1.00;;
35048;SDS011;21236;48.740;-3.446;2022-07-06T13:59:03;1.27;;;1.13;;
35048;SDS011;21236;48.740;-3.446;2022-07-06T14:01:29;2.17;;;1.10;;
35048;SDS011;21236;48.740;-3.446;2022-07-06T14:03:55;1.95;;;1.13;;
35048;SDS011;21236;48.740;-3.446;2022-07-06T14:06:21;3.47;;;1.00;;
35048;SDS011;21236;48.740;-3.446;2022-07-06T14:08:47;3.70;;;1.00;;
35048;SDS011;21236;48.740;-3.446;2022-07-06T14:11:13;1.05;;;1.00;;
35048;SDS011;21236;48.740;-3.446;2022-07-06T14:13:40;1.67;;;1.20;;
35048;SDS011;21236;48.740;-3.446;2022-07-06T14:16:06;1.00;;;0.80;;
35048;SDS011;21236;48.740;-3.446;2022-07-06T14:18:32;1.73;;;1.00;;
35048;SDS011;21236;48.740;-3.446;2022-07-06T14:20:58;3.85;;;1.73;;
35048;SDS011;21236;48.740;-3.446;2022-07-06T14:23:25;3.83;;;1.50;;
35048;SDS011;21236;48.740;-3.446;2022-07-06T14:25:51;1.48;;;1.10;;
35048;SDS011;21236;48.740;-3.446;2022-07-06T14:28:19;2.22;;;1.40;;
35048;SDS011;21236;48.740;-3.446;2022-07-06T14:30:46;1.52;;;1.13;;
35048;SDS011;21236;48.740;-3.446;2022-07-06T14:33:12;5.43;;;1.38;;
35048;SDS011;21236;48.740;-3.446;2022-07-06T14:35:42;1.90;;;1.23;;
35048;SDS011;21236;48.740;-3.446;2022-07-06T14:38:09;1.98;;;1.70;;
35048;SDS011;21236;48.740;-3.446;2022-07-06T14:40:35;3.80;;;1.70;;
35048;SDS011;21236;48.740;-3.446;2022-07-06T14:43:02;5.15;;;1.67;;
35048;SDS011;21236;48.740;-3.446;2022-07-06T14:45:28;2.70;;;1.40;;